createdAt,value
2019-04-27T00:00:47.050Z,13.51
2019-04-27T00:03:23.523Z,13.47
2019-04-27T00:05:53.654Z,13.46
2019-04-27T00:08:39.163Z,13.45
2019-04-27T00:11:13.638Z,13.38
2019-04-27T00:13:43.937Z,13.31
2019-04-27T00:16:14.702Z,13.27
2019-04-27T00:18:49.723Z,13.20
2019-04-27T00:21:19.421Z,13.17
2019-04-27T00:23:48.453Z,13.12
2019-04-27T00:26:17.079Z,13.14
2019-04-27T00:28:45.711Z,13.11
2019-04-27T00:31:14.390Z,13.01
2019-04-27T00:33:43.553Z,12.98
2019-04-27T00:36:13.700Z,12.93
2019-04-27T00:38:47.915Z,12.93
2019-04-27T00:41:19.238Z,12.83
2019-04-27T00:43:47.878Z,12.64
2019-04-27T00:46:16.531Z,12.46
2019-04-27T00:48:45.588Z,12.33
2019-04-27T00:51:14.510Z,12.21
2019-04-27T00:53:43.694Z,12.17
2019-04-27T00:56:14.031Z,12.03
2019-04-27T00:58:45.503Z,12.10
2019-04-27T01:01:16.234Z,11.97
2019-04-27T01:03:58.199Z,11.93
2019-04-27T01:06:33.826Z,11.89
2019-04-27T01:09:03.539Z,11.82
2019-04-27T01:11:33.284Z,11.75
2019-04-27T01:14:03.751Z,11.78
2019-04-27T01:16:32.425Z,11.85
2019-04-27T01:19:00.910Z,11.92
2019-04-27T01:21:29.653Z,12.16
2019-04-27T01:23:58.922Z,12.09
2019-04-27T01:26:45.340Z,11.90
2019-04-27T01:29:15.611Z,11.87
2019-04-27T01:31:44.296Z,11.71
2019-04-27T01:34:12.881Z,11.68
2019-04-27T01:36:41.435Z,11.61
2019-04-27T01:39:14.614Z,11.47
2019-04-27T01:41:43.982Z,11.49
2019-04-27T01:44:12.604Z,11.53
2019-04-27T01:46:41.185Z,11.57
2019-04-27T01:49:09.806Z,11.60
2019-04-27T01:51:39.157Z,11.63
2019-04-27T01:54:10.468Z,11.60
2019-04-27T01:56:39.505Z,11.80
2019-04-27T01:59:08.650Z,11.80
2019-04-27T02:01:40.416Z,11.80
2019-04-27T02:04:25.645Z,11.69
2019-04-27T02:06:55.896Z,11.70
2019-04-27T02:09:24.877Z,11.47
2019-04-27T02:11:53.730Z,11.34
2019-04-27T02:14:22.464Z,11.32
2019-04-27T02:16:51.046Z,11.34
2019-04-27T02:19:19.681Z,11.38
2019-04-27T02:21:49.461Z,11.37
2019-04-27T02:24:18.886Z,11.37
2019-04-27T02:26:47.511Z,11.37
2019-04-27T02:29:26.815Z,11.43
2019-04-27T02:32:13.216Z,11.61
2019-04-27T02:34:43.419Z,11.67
2019-04-27T02:37:11.932Z,11.42
2019-04-27T02:39:40.476Z,11.39
2019-04-27T02:42:10.163Z,11.26
2019-04-27T02:44:40.872Z,11.26
2019-04-27T02:47:10.651Z,11.21
2019-04-27T02:49:40.644Z,11.17
2019-04-27T02:52:16.853Z,11.17
2019-04-27T02:54:45.464Z,11.09
2019-04-27T02:57:14.936Z,11.03
2019-04-27T02:59:43.570Z,10.94
2019-04-27T03:02:19.423Z,11.04
2019-04-27T03:04:49.584Z,11.10
2019-04-27T03:07:19.871Z,11.24
2019-04-27T03:09:50.603Z,11.33
2019-04-27T03:12:19.890Z,11.33
2019-04-27T03:14:50.683Z,11.17
2019-04-27T03:17:23.763Z,11.05
2019-04-27T03:20:00.057Z,10.94
2019-04-27T03:22:42.367Z,10.83
2019-04-27T03:25:15.349Z,10.88
2019-04-27T03:27:50.300Z,10.91
2019-04-27T03:30:23.044Z,11.00
2019-04-27T03:32:51.288Z,11.02
2019-04-27T03:35:22.824Z,11.06
2019-04-27T03:37:50.190Z,11.09
2019-04-27T03:40:20.394Z,11.24
2019-04-27T03:42:50.775Z,11.30
2019-04-27T03:45:20.333Z,11.29
2019-04-27T03:47:50.553Z,11.13
2019-04-27T03:50:20.892Z,11.05
2019-04-27T03:53:06.187Z,11.03
2019-04-27T03:55:42.721Z,11.05
2019-04-27T03:58:26.008Z,10.98
2019-04-27T04:00:54.964Z,11.02
2019-04-27T04:03:23.832Z,11.18
2019-04-27T04:05:52.519Z,11.20
2019-04-27T04:08:21.079Z,11.22
2019-04-27T04:10:51.336Z,11.26
2019-04-27T04:13:29.556Z,11.33
2019-04-27T04:16:10.707Z,11.37
2019-04-27T04:18:40.258Z,11.61
2019-04-27T04:21:09.583Z,11.60
2019-04-27T04:23:40.219Z,11.62
2019-04-27T04:26:09.853Z,11.46
2019-04-27T04:28:39.625Z,11.39
2019-04-27T04:31:13.279Z,11.47
2019-04-27T04:33:40.333Z,11.53
2019-04-27T04:36:10.145Z,11.53
2019-04-27T04:38:40.162Z,11.56
2019-04-27T04:41:16.389Z,11.52
2019-04-27T04:43:49.500Z,11.57
2019-04-27T04:46:22.948Z,11.57
2019-04-27T04:48:50.400Z,11.67
2019-04-27T04:51:20.087Z,11.81
2019-04-27T04:53:51.706Z,11.88
2019-04-27T04:56:19.116Z,11.90
2019-04-27T04:58:49.690Z,11.81
2019-04-27T05:01:19.661Z,11.91
2019-04-27T05:03:48.839Z,11.82
2019-04-27T05:06:18.990Z,11.68
2019-04-27T05:08:49.280Z,11.63
2019-04-27T05:11:19.624Z,11.74
2019-04-27T05:13:49.433Z,11.72
2019-04-27T05:16:18.921Z,11.82
2019-04-27T05:18:49.406Z,11.80
2019-04-27T05:21:25.592Z,11.84
2019-04-27T05:23:54.149Z,11.90
2019-04-27T05:26:22.737Z,11.89
2019-04-27T05:28:51.283Z,11.98
2019-04-27T05:31:19.812Z,12.13
2019-04-27T05:33:49.051Z,12.09
2019-04-27T05:36:19.330Z,12.06
2019-04-27T05:38:49.680Z,12.08
2019-04-27T05:41:18.788Z,12.13
2019-04-27T05:43:59.117Z,12.16
2019-04-27T05:46:45.783Z,12.21
2019-04-27T05:49:15.927Z,12.17
2019-04-27T05:51:44.425Z,12.12
2019-04-27T05:54:12.931Z,12.20
2019-04-27T05:56:41.438Z,12.17
2019-04-27T05:59:09.954Z,12.26
2019-04-27T06:01:39.071Z,12.34
2019-04-27T06:04:09.008Z,12.46
2019-04-27T06:06:39.663Z,12.72
2019-04-27T06:09:09.510Z,12.65
2019-04-27T06:11:39.827Z,12.60
2019-04-27T06:14:09.665Z,12.54
2019-04-27T06:16:39.364Z,12.53
2019-04-27T06:19:09.673Z,12.39
2019-04-27T06:21:40.034Z,12.30
2019-04-27T06:24:08.868Z,12.30
2019-04-27T06:26:37.339Z,12.28
2019-04-27T06:29:05.897Z,12.20
2019-04-27T06:31:34.488Z,12.18
2019-04-27T06:34:03.114Z,12.30
2019-04-27T06:36:31.739Z,12.25
2019-04-27T06:39:00.340Z,12.41
2019-04-27T06:41:29.502Z,12.52
2019-04-27T06:43:59.203Z,12.71
2019-04-27T06:46:28.824Z,12.51
2019-04-27T06:48:59.253Z,12.42
2019-04-27T06:51:28.727Z,12.33
2019-04-27T06:53:57.279Z,12.21
2019-04-27T06:56:25.856Z,12.26
2019-04-27T06:58:54.368Z,12.32
2019-04-27T07:01:23.001Z,12.35
2019-04-27T07:03:51.537Z,12.45
2019-04-27T07:06:20.078Z,12.43
2019-04-27T07:08:49.800Z,12.41
2019-04-27T07:11:19.740Z,12.50
2019-04-27T07:13:49.778Z,12.54
2019-04-27T07:16:19.627Z,12.47
2019-04-27T07:18:48.277Z,12.60
2019-04-27T07:21:22.319Z,12.76
2019-04-27T07:23:59.075Z,12.93
2019-04-27T07:26:30.610Z,13.09
2019-04-27T07:28:59.714Z,13.06
2019-04-27T07:31:29.506Z,12.78
2019-04-27T07:33:59.535Z,12.78
2019-04-27T07:36:28.988Z,12.62
2019-04-27T07:38:59.644Z,12.65
2019-04-27T07:41:29.133Z,12.63
2019-04-27T07:43:59.531Z,12.56
2019-04-27T07:46:29.936Z,12.32
2019-04-27T07:48:59.484Z,12.36
2019-04-27T07:51:32.087Z,12.38
2019-04-27T07:53:58.901Z,12.61
2019-04-27T07:56:29.117Z,12.78
2019-04-27T07:58:59.429Z,12.93
2019-04-27T08:01:29.421Z,13.09
2019-04-27T08:03:59.032Z,13.16
2019-04-27T08:06:28.936Z,13.26
2019-04-27T08:08:59.374Z,13.36
2019-04-27T08:11:29.222Z,13.37
2019-04-27T08:13:58.852Z,13.31
2019-04-27T08:16:29.044Z,13.14
2019-04-27T08:18:59.851Z,12.94
2019-04-27T08:21:28.921Z,12.89
2019-04-27T08:23:58.653Z,12.84
2019-04-27T08:26:29.369Z,12.62
2019-04-27T08:29:01.937Z,12.55
2019-04-27T08:31:32.195Z,12.58
2019-04-27T08:34:00.838Z,12.65
2019-04-27T08:36:29.441Z,12.69
2019-04-27T08:38:58.852Z,12.69
2019-04-27T08:41:29.465Z,12.66
2019-04-27T08:43:58.722Z,12.59
2019-04-27T08:46:28.625Z,12.60
2019-04-27T08:48:58.703Z,12.66
2019-04-27T08:51:29.020Z,12.63
2019-04-27T08:53:59.106Z,12.46
2019-04-27T08:56:27.751Z,12.45
2019-04-27T08:58:56.401Z,12.36
2019-04-27T09:01:25.029Z,12.45
2019-04-27T09:03:53.644Z,12.55
2019-04-27T09:06:22.305Z,12.62
2019-04-27T09:08:52.544Z,12.55
2019-04-27T09:11:25.427Z,12.65
2019-04-27T09:13:55.702Z,12.73
2019-04-27T09:16:31.953Z,12.90
2019-04-27T09:19:02.138Z,12.98
2019-04-27T09:21:32.382Z,13.07
2019-04-27T09:24:01.012Z,13.24
2019-04-27T09:26:29.561Z,13.38
2019-04-27T09:28:59.587Z,13.33
2019-04-27T09:31:28.844Z,13.34
2019-04-27T09:33:57.377Z,13.39
2019-04-27T09:36:26.111Z,13.30
2019-04-27T09:38:56.419Z,13.13
2019-04-27T09:41:26.205Z,12.90
2019-04-27T09:43:55.885Z,12.80
2019-04-27T09:46:25.983Z,12.64
2019-04-27T09:48:56.475Z,12.53
2019-04-27T09:51:25.658Z,12.48
2019-04-27T09:53:54.184Z,12.45
2019-04-27T09:56:22.806Z,12.48
2019-04-27T09:58:51.440Z,12.55
2019-04-27T10:01:20.094Z,12.58
2019-04-27T10:03:48.701Z,12.68
2019-04-27T10:06:17.301Z,12.62
2019-04-27T10:08:45.925Z,12.54
2019-04-27T10:11:16.186Z,12.40
2019-04-27T10:13:46.453Z,12.58
2019-04-27T10:16:15.182Z,12.80
2019-04-27T10:18:43.672Z,12.89
2019-04-27T10:21:12.189Z,12.90
2019-04-27T10:23:40.758Z,12.85
2019-04-27T10:26:09.403Z,12.85
2019-04-27T10:28:37.991Z,12.62
2019-04-27T10:31:07.105Z,12.37
2019-04-27T10:33:35.976Z,12.28
2019-04-27T10:36:06.343Z,12.31
2019-04-27T10:38:36.291Z,12.31
2019-04-27T10:41:05.651Z,12.25
2019-04-27T10:43:35.277Z,12.28
2019-04-27T10:46:03.877Z,12.25
2019-04-27T10:48:32.364Z,12.30
2019-04-27T10:51:01.011Z,12.16
2019-04-27T10:53:29.601Z,12.17
2019-04-27T10:55:58.369Z,12.07
2019-04-27T10:58:27.322Z,12.09
2019-04-27T11:00:58.489Z,12.04
2019-04-27T11:03:46.250Z,12.14
2019-04-27T11:06:32.871Z,12.09
2019-04-27T11:09:01.590Z,12.19
2019-04-27T11:11:32.603Z,12.17
2019-04-27T11:14:01.250Z,12.11
2019-04-27T11:16:29.829Z,12.15
2019-04-27T11:18:58.860Z,12.32
2019-04-27T11:21:27.551Z,12.55
2019-04-27T11:23:56.148Z,12.71
2019-04-27T11:26:26.310Z,12.65
2019-04-27T11:28:55.093Z,12.40
2019-04-27T11:31:23.710Z,12.31
2019-04-27T11:33:52.836Z,12.29
2019-04-27T11:36:22.993Z,12.42
2019-04-27T11:38:53.245Z,12.11
2019-04-27T11:41:21.733Z,12.04
2019-04-27T11:43:51.010Z,12.08
2019-04-27T11:46:19.688Z,12.00
2019-04-27T11:48:48.317Z,11.69
2019-04-27T11:51:17.458Z,11.24
2019-04-27T11:53:46.841Z,11.24
2019-04-27T11:56:15.713Z,11.39
2019-04-27T11:58:47.203Z,11.60
2019-04-27T12:01:16.345Z,11.71
2019-04-27T12:03:44.964Z,11.90
2019-04-27T12:06:13.585Z,12.15
2019-04-27T12:08:42.223Z,12.26
2019-04-27T12:11:10.813Z,12.48
2019-04-27T12:13:39.388Z,12.68
2019-04-27T12:16:08.016Z,13.22
2019-04-27T12:18:36.571Z,13.66
2019-04-27T12:21:06.134Z,13.74
2019-04-27T12:23:39.456Z,13.68
2019-04-27T12:26:05.859Z,13.49
2019-04-27T12:28:35.951Z,13.40
2019-04-27T12:31:08.696Z,13.30
2019-04-27T12:33:36.921Z,13.20
2019-04-27T12:36:06.805Z,13.23
2019-04-27T12:38:36.491Z,13.47
2019-04-27T12:41:06.759Z,13.70
2019-04-27T12:43:37.284Z,13.60
2019-04-27T12:46:05.964Z,13.35
2019-04-27T12:48:37.145Z,13.26
2019-04-27T12:51:04.942Z,13.42
2019-04-27T12:53:48.271Z,13.82
2019-04-27T12:56:16.635Z,14.63
2019-04-27T12:58:59.061Z,15.09
2019-04-27T13:01:28.997Z,15.13
2019-04-27T13:03:59.297Z,14.86
2019-04-27T13:06:27.941Z,15.10
2019-04-27T13:08:56.451Z,15.09
2019-04-27T13:11:26.670Z,15.34
2019-04-27T13:13:57.182Z,15.37
2019-04-27T13:16:26.870Z,15.32
2019-04-27T13:18:57.484Z,15.36
2019-04-27T13:21:26.369Z,15.42
2019-04-27T13:24:02.095Z,15.67
2019-04-27T13:26:25.278Z,15.75
2019-04-27T13:28:53.825Z,15.74
2019-04-27T13:31:22.329Z,15.68
2019-04-27T13:33:50.934Z,15.64
2019-04-27T13:36:19.531Z,15.37
2019-04-27T13:38:48.047Z,15.26
2019-04-27T13:41:27.801Z,15.14
2019-04-27T13:43:46.829Z,15.23
2019-04-27T13:46:19.816Z,15.19
2019-04-27T13:49:06.313Z,15.12
2019-04-27T13:51:39.295Z,15.10
2019-04-27T13:54:17.277Z,15.29
2019-04-27T13:56:38.281Z,15.47
2019-04-27T13:59:07.716Z,15.21
2019-04-27T14:01:36.430Z,15.22
2019-04-27T14:04:07.053Z,15.20
2019-04-27T14:06:35.622Z,15.14
2019-04-27T14:09:06.021Z,15.18
2019-04-27T14:11:34.616Z,15.03
2019-04-27T14:14:03.300Z,14.70
2019-04-27T14:16:31.791Z,14.42
2019-04-27T14:19:00.442Z,14.26
2019-04-27T14:21:29.559Z,14.24
2019-04-27T14:23:58.666Z,14.47
2019-04-27T14:26:28.443Z,14.70
2019-04-27T14:28:58.331Z,14.86
2019-04-27T14:31:26.905Z,14.99
2019-04-27T14:33:55.419Z,15.11
2019-04-27T14:36:23.965Z,15.18
2019-04-27T14:38:53.140Z,15.41
2019-04-27T14:41:21.644Z,15.58
2019-04-27T14:44:05.340Z,15.59
2019-04-27T14:46:20.560Z,15.41
2019-04-27T14:48:49.133Z,15.45
2019-04-27T14:51:18.745Z,15.37
2019-04-27T14:53:48.830Z,15.37
2019-04-27T14:56:18.200Z,14.91
2019-04-27T14:58:46.706Z,14.91
2019-04-27T15:01:15.306Z,14.32
2019-04-27T15:03:43.918Z,14.32
2019-04-27T15:06:13.829Z,14.19
2019-04-27T15:08:43.642Z,13.90
2019-04-27T15:11:15.563Z,13.46
2019-04-27T15:13:47.819Z,13.06
2019-04-27T15:16:13.008Z,12.95
2019-04-27T15:18:43.799Z,13.11
2019-04-27T15:21:12.484Z,13.14
2019-04-27T15:23:41.470Z,13.41
2019-04-27T15:26:10.545Z,13.83
2019-04-27T15:28:40.711Z,14.02
2019-04-27T15:31:23.634Z,14.13
2019-04-27T15:33:54.735Z,14.24
2019-04-27T15:36:26.280Z,14.05
2019-04-27T15:38:56.434Z,13.90
2019-04-27T15:41:28.926Z,13.90
2019-04-27T15:43:59.619Z,13.97
2019-04-27T15:46:33.581Z,13.83
2019-04-27T15:48:58.935Z,13.68
2019-04-27T15:51:28.310Z,13.80
2019-04-27T15:53:58.678Z,13.22
2019-04-27T15:56:30.474Z,13.22
2019-04-27T15:59:00.021Z,13.33
2019-04-27T16:01:31.242Z,13.22
2019-04-27T16:03:58.493Z,13.08
2019-04-27T16:06:28.541Z,13.41
2019-04-27T16:08:58.944Z,13.41
2019-04-27T16:11:27.631Z,13.27
2019-04-27T16:13:56.155Z,13.35
2019-04-27T16:16:29.111Z,13.39
2019-04-27T16:18:55.585Z,13.36
2019-04-27T16:21:24.230Z,13.14
2019-04-27T16:23:52.808Z,13.04
2019-04-27T16:26:21.490Z,13.06
2019-04-27T16:28:53.444Z,13.03
2019-04-27T16:31:24.496Z,13.21
2019-04-27T16:33:54.063Z,13.28
2019-04-27T16:36:21.398Z,13.26
2019-04-27T16:38:54.632Z,13.33
2019-04-27T16:41:23.260Z,13.43
2019-04-27T16:43:51.890Z,13.48
2019-04-27T16:46:21.414Z,13.51
2019-04-27T16:48:50.156Z,13.66
2019-04-27T16:51:18.801Z,13.72
2019-04-27T16:53:47.458Z,13.72
2019-04-27T16:56:18.556Z,13.81
2019-04-27T16:58:49.107Z,13.89
2019-04-27T17:01:24.092Z,13.98
2019-04-27T17:03:52.706Z,13.93
2019-04-27T17:06:21.573Z,13.88
2019-04-27T17:08:50.217Z,13.83
2019-04-27T17:11:19.514Z,13.63
2019-04-27T17:13:52.725Z,13.47
2019-04-27T17:16:39.544Z,13.39
2019-04-27T17:19:12.310Z,13.30
2019-04-27T17:21:41.272Z,13.14
2019-04-27T17:24:09.919Z,12.89
2019-04-27T17:26:41.886Z,12.80
2019-04-27T17:29:20.272Z,12.61
2019-04-27T17:31:50.469Z,12.12
2019-04-27T17:34:25.038Z,11.46
2019-04-27T17:36:54.468Z,10.89
2019-04-27T17:39:23.350Z,10.33
2019-04-27T17:41:52.806Z,10.08
2019-04-27T17:44:23.099Z,10.03
2019-04-27T17:46:51.267Z,10.30
2019-04-27T17:49:19.947Z,10.27
2019-04-27T17:51:48.550Z,10.02
2019-04-27T17:54:18.189Z,9.99
2019-04-27T17:56:49.333Z,9.81
2019-04-27T17:59:20.748Z,9.86
2019-04-27T18:01:49.440Z,10.04
2019-04-27T18:04:18.541Z,10.43
2019-04-27T18:06:48.378Z,10.61
2019-04-27T18:09:18.780Z,10.66
2019-04-27T18:11:48.620Z,10.87
2019-04-27T18:14:19.255Z,10.95
2019-04-27T18:16:48.296Z,10.89
2019-04-27T18:19:18.632Z,10.95
2019-04-27T18:22:01.294Z,10.91
2019-04-27T18:24:31.609Z,11.03
2019-04-27T18:27:14.195Z,11.11
2019-04-27T18:29:42.775Z,11.17
2019-04-27T18:32:11.339Z,11.17
2019-04-27T18:34:39.979Z,11.25
2019-04-27T18:37:08.607Z,11.23
2019-04-27T18:39:38.436Z,11.15
2019-04-27T18:42:08.827Z,11.23
2019-04-27T18:44:38.193Z,11.05
2019-04-27T18:47:08.418Z,11.12
2019-04-27T18:50:07.350Z,11.17
2019-04-27T18:52:40.843Z,11.14
2019-04-27T18:55:09.317Z,11.07
2019-04-27T18:57:38.802Z,10.98
2019-04-27T19:00:11.166Z,10.81
2019-04-27T19:02:39.760Z,10.79
2019-04-27T19:05:08.915Z,10.81
2019-04-27T19:07:38.153Z,10.77
2019-04-27T19:10:08.796Z,10.66
2019-04-27T19:12:39.151Z,10.77
2019-04-27T19:15:08.352Z,10.85
2019-04-27T19:17:38.689Z,10.97
2019-04-27T19:20:08.333Z,11.03
2019-04-27T19:22:38.609Z,11.15
2019-04-27T19:25:09.792Z,11.19
2019-04-27T19:27:45.720Z,11.13
2019-04-27T19:30:16.196Z,10.94
2019-04-27T19:32:44.821Z,10.83
2019-04-27T19:35:13.416Z,10.79
2019-04-27T19:37:41.870Z,10.81
2019-04-27T19:40:10.674Z,10.70
2019-04-27T19:42:39.258Z,10.62
2019-04-27T19:45:07.959Z,10.66
2019-04-27T19:47:38.303Z,10.79
2019-04-27T19:50:07.737Z,10.88
2019-04-27T19:52:36.340Z,10.91
2019-04-27T19:55:06.024Z,10.87
2019-04-27T19:57:39.191Z,10.97
2019-04-27T20:00:11.250Z,11.09
2019-04-27T20:02:39.877Z,11.11
2019-04-27T20:05:08.550Z,11.01
2019-04-27T20:07:38.075Z,10.89
2019-04-27T20:10:08.779Z,10.74
2019-04-27T20:12:37.494Z,10.66
2019-04-27T20:15:07.879Z,10.71
2019-04-27T20:17:36.451Z,10.66
2019-04-27T20:20:06.998Z,10.73
2019-04-27T20:22:35.586Z,10.85
2019-04-27T20:25:05.329Z,10.91
2019-04-27T20:27:45.289Z,11.00
2019-04-27T20:30:06.336Z,11.11
2019-04-27T20:32:34.914Z,11.22
2019-04-27T20:35:03.842Z,11.37
2019-04-27T20:37:32.450Z,11.44
2019-04-27T20:40:01.639Z,11.23
2019-04-27T20:42:31.488Z,11.06
2019-04-27T20:45:02.007Z,11.13
2019-04-27T20:47:30.569Z,11.21
2019-04-27T20:49:59.084Z,11.26
2019-04-27T20:52:30.784Z,11.26
2019-04-27T20:55:01.252Z,11.22
2019-04-27T20:57:31.607Z,11.22
2019-04-27T21:00:01.794Z,11.22
2019-04-27T21:02:32.218Z,11.10
2019-04-27T21:05:12.618Z,11.01
2019-04-27T21:07:48.799Z,10.94
2019-04-27T21:10:17.384Z,11.13
2019-04-27T21:12:45.899Z,11.19
2019-04-27T21:15:14.597Z,11.25
2019-04-27T21:17:43.662Z,11.27
2019-04-27T21:20:13.247Z,11.32
2019-04-27T21:22:41.961Z,11.26
2019-04-27T21:25:11.881Z,11.17
2019-04-27T21:27:41.191Z,11.14
2019-04-27T21:30:11.433Z,11.21
2019-04-27T21:32:40.082Z,11.12
2019-04-27T21:35:10.862Z,11.12
2019-04-27T21:37:40.933Z,11.11
2019-04-27T21:40:14.947Z,11.13
2019-04-27T21:42:43.721Z,11.07
2019-04-27T21:45:12.471Z,11.11
2019-04-27T21:47:41.330Z,11.09
2019-04-27T21:50:12.137Z,11.04
2019-04-27T21:52:42.371Z,11.08
2019-04-27T21:55:12.751Z,11.18
2019-04-27T21:57:41.273Z,11.17
2019-04-27T22:00:17.129Z,10.99
2019-04-27T22:02:45.827Z,11.01
2019-04-27T22:05:14.569Z,11.10
2019-04-27T22:07:43.238Z,11.17
2019-04-27T22:10:11.932Z,11.19
2019-04-27T22:12:41.621Z,11.07
2019-04-27T22:15:11.135Z,11.12
2019-04-27T22:17:39.807Z,11.04
2019-04-27T22:20:08.801Z,11.03
2019-04-27T22:22:39.057Z,11.15
2019-04-27T22:25:09.279Z,11.10
2019-04-27T22:27:37.803Z,10.90
2019-04-27T22:30:11.003Z,10.79
2019-04-27T22:32:41.415Z,10.69
2019-04-27T22:35:10.305Z,10.70
2019-04-27T22:37:38.954Z,10.69
2019-04-27T22:40:12.413Z,10.68
2019-04-27T22:42:45.486Z,10.68
2019-04-27T22:45:15.758Z,10.69
2019-04-27T22:47:44.340Z,10.69
2019-04-27T22:50:13.078Z,10.70
2019-04-27T22:52:41.603Z,10.75
2019-04-27T22:55:11.797Z,10.84
2019-04-27T22:57:45.174Z,11.06
2019-04-27T23:00:18.306Z,10.93
2019-04-27T23:02:48.530Z,10.92
2019-04-27T23:05:17.151Z,10.88
2019-04-27T23:07:45.770Z,10.90
2019-04-27T23:10:14.382Z,10.87
2019-04-27T23:12:43.006Z,10.77
2019-04-27T23:15:13.226Z,10.68
2019-04-27T23:17:46.445Z,10.69
2019-04-27T23:20:15.111Z,10.73
2019-04-27T23:22:43.654Z,10.88
2019-04-27T23:25:12.311Z,11.00
2019-04-27T23:27:41.128Z,11.08
2019-04-27T23:30:11.335Z,11.09
2019-04-27T23:32:41.659Z,11.24
2019-04-27T23:35:10.269Z,11.24
2019-04-27T23:37:38.785Z,11.19
2019-04-27T23:40:07.617Z,11.11
2019-04-27T23:42:37.187Z,10.94
2019-04-27T23:45:09.012Z,10.90
2019-04-27T23:47:37.959Z,10.93
2019-04-27T23:50:07.908Z,10.83
2019-04-27T23:52:55.037Z,10.81
2019-04-27T23:55:25.274Z,10.77
2019-04-27T23:57:53.816Z,10.88
